Flugplatz Weißenhorn

Für EDNW sind keine METAR/TAF Berichte vorhanden.
Es werden die Flugwettermeldungen vom Flugplatz Laupheim Airport in 18 km Entfernung angezeigt.

Bericht für ETHL

vom 25.01. um 22:20 UTC

Wind 2 kt aus 200°

Sichtweite 7000 m

aufgebrochene Bewölkung in 18000 ft

Temperatur -1.0°C

Taupunkt -2.0°C

Luftfeuchtigkeit 93%

Luftdruck 1020 hPa

ETHL 252220Z 20002KT 7000 BKN180 M01/M02 Q1020 WHT
Keine Prognose (TAF) verfügbar.
Impressum